Terminal Aerodrome Forecast
Issued by NWS Bismarck, ND

Home | Current Version | Previous Version | Text Only | Print | Product List | Glossary On
Versions: 1 2 3 4 5 6 7 8 9 10 11 12 13 14 15 16 17 18 19
000
FTUS43 KBIS 260500
TAFBIS
TAF
KBIS 260537Z 2606/2706 01016G23KT P6SM SCT015 BKN025 OVC035
      TEMPO 2606/2610 -SN BKN015 OVC025
     FM261000 35013KT P6SM BKN012 OVC022
     FM261500 05007KT P6SM -SN BKN025 OVC070
     FM261900 06004KT P6SM BKN035
     FM270100 11005KT P6SM SCT035=

USA.gov is the U.S. government's official web portal to all federal, state and local government web resources and services.